Time;durP1;ratioP1;P1;durP2;ratioP2;P2;SDS_P1;SDS_P2;PMS_P1;PMS_P2;Temp;Humidity;BMP_temperature;BMP_pressure;BME280_temperature;BME280_humidity;BME280_pressure;Samples;Min_cycle;Max_cycle;Signal;HPM_P1;HPM_P2
2021/07/22 00:02:24;;;;;;;2.00;1.80;;;25.10;51.30;;;-147.20;100.00;58430.41;5112973;28;20487;-52
2021/07/22 00:04:50;;;;;;;2.20;1.92;;;25.10;51.30;;;-147.20;100.00;58430.41;5112849;28;20058;-52
2021/07/22 00:07:16;;;;;;;2.30;2.10;;;25.10;51.30;;;-147.20;100.00;58430.41;5112790;28;20042;-53
2021/07/22 00:09:42;;;;;;;2.28;2.00;;;25.10;51.30;;;-147.20;100.00;58430.41;5112704;28;20048;-54
2021/07/22 00:12:10;;;;;;;2.17;1.98;;;25.10;51.30;;;-147.20;100.00;58430.41;5112934;28;20047;-52
2021/07/22 00:14:36;;;;;;;3.60;2.00;;;25.10;51.40;;;-147.20;100.00;58430.41;5094618;28;20441;-50
2021/07/22 00:17:03;;;;;;;2.25;2.03;;;25.10;51.30;;;-147.20;100.00;58430.41;5112616;28;20040;-50
2021/07/22 00:19:30;;;;;;;2.00;1.90;;;25.10;51.40;;;-147.20;100.00;58430.41;5112535;28;20039;-52
2021/07/22 00:21:57;;;;;;;2.30;2.10;;;25.00;51.30;;;-147.20;100.00;58430.41;5112545;28;20075;-50
2021/07/22 00:24:24;;;;;;;2.20;2.00;;;25.10;51.40;;;-147.20;100.00;58430.41;5112676;28;20105;-53
2021/07/22 00:26:50;;;;;;;2.72;2.28;;;25.00;51.30;;;-147.20;100.00;58430.41;5112843;28;20071;-52
2021/07/22 00:29:15;;;;;;;2.22;2.00;;;25.00;51.30;;;-147.20;100.00;58430.41;5114817;28;20131;-51
2021/07/22 00:31:41;;;;;;;2.25;2.00;;;25.10;51.40;;;-147.20;100.00;58430.41;5116310;28;20043;-52
2021/07/22 00:34:07;;;;;;;2.63;2.22;;;25.00;51.40;;;-147.20;100.00;58430.41;5116113;28;20035;-50
2021/07/22 00:36:33;;;;;;;2.45;2.22;;;25.00;51.40;;;-147.20;100.00;58430.41;5116462;28;20043;-51
2021/07/22 00:38:58;;;;;;;2.35;2.00;;;25.00;51.40;;;-147.20;100.00;58430.41;5116250;28;20052;-51
2021/07/22 00:41:24;;;;;;;2.20;2.00;;;25.00;51.40;;;-147.20;100.00;58430.41;5115997;28;20146;-53
2021/07/22 00:43:51;;;;;;;2.40;1.92;;;25.00;51.40;;;-147.20;100.00;58430.41;5114525;28;20048;-53
2021/07/22 00:46:17;;;;;;;2.38;2.17;;;25.00;51.40;;;-147.20;100.00;58430.41;5114887;28;20105;-51
2021/07/22 00:48:44;;;;;;;2.25;2.05;;;25.00;51.40;;;-147.20;100.00;58430.41;5097521;28;20039;-52
2021/07/22 00:51:10;;;;;;;2.70;2.17;;;25.00;51.40;;;-147.20;100.00;58430.41;5097436;28;20495;-52
2021/07/22 00:53:37;;;;;;;2.65;2.20;;;25.00;51.50;;;-147.20;100.00;58430.41;5115821;28;20096;-53
2021/07/22 00:56:05;;;;;;;2.45;2.25;;;25.00;51.50;;;-147.20;100.00;58430.41;5116077;28;20134;-51
2021/07/22 00:58:33;;;;;;;2.20;1.90;;;25.00;51.50;;;-147.20;100.00;58430.41;5097430;28;20097;-53
2021/07/22 01:00:59;;;;;;;3.13;2.03;;;25.00;51.50;;;-147.20;100.00;58430.41;5114287;28;20142;-54
2021/07/22 01:03:26;;;;;;;3.50;2.30;;;25.00;51.50;;;-147.20;100.00;58430.41;5114157;28;20887;-53
2021/07/22 01:05:52;;;;;;;2.42;2.17;;;25.00;51.50;;;-147.20;100.00;58430.41;5115477;28;20480;-49
2021/07/22 01:08:18;;;;;;;2.35;2.00;;;25.00;51.50;;;-147.20;100.00;58430.41;5114042;28;20083;-52
2021/07/22 01:11:03;;;;;;;2.20;2.00;;;25.00;51.50;;;-147.20;100.00;58430.41;5113748;28;20053;-52
2021/07/22 01:13:29;;;;;;;2.45;2.17;;;25.00;51.50;;;-147.20;100.00;58430.41;5114147;28;20051;-52
2021/07/22 01:15:55;;;;;;;3.00;2.28;;;25.00;51.60;;;-147.20;100.00;58430.41;5097027;28;20117;-51
2021/07/22 01:18:21;;;;;;;2.20;2.00;;;24.90;51.80;;;-147.20;100.00;58430.41;5114964;28;20113;-48
2021/07/22 01:20:49;;;;;;;2.90;2.17;;;24.90;51.50;;;-147.20;100.00;58430.41;5113278;28;20407;-51
2021/07/22 01:23:15;;;;;;;2.15;1.95;;;24.90;51.60;;;-147.20;100.00;58430.41;5112303;28;20047;-50
2021/07/22 01:26:10;;;;;;;2.63;2.42;;;24.90;51.60;;;-147.20;100.00;58430.41;5076382;28;20045;-50
2021/07/22 01:28:37;;;;;;;2.15;1.95;;;24.90;51.60;;;-147.20;100.00;58430.41;5096847;28;20055;-51
2021/07/22 01:31:04;;;;;;;3.42;1.80;;;24.90;51.60;;;-147.20;100.00;58430.41;5113850;28;20047;-54
2021/07/22 01:33:33;;;;;;;2.28;2.08;;;24.90;51.60;;;-147.20;100.00;58430.41;5094919;28;20048;-51
2021/07/22 01:35:59;;;;;;;2.30;2.05;;;24.90;51.60;;;-147.20;100.00;58430.41;5097306;28;20055;-52
2021/07/22 01:38:27;;;;;;;2.40;2.10;;;24.90;51.70;;;-147.20;100.00;58430.41;5112849;28;20062;-53
2021/07/22 01:40:53;;;;;;;2.78;2.53;;;24.80;51.60;;;-147.20;100.00;58430.41;5113363;28;20058;-50
2021/07/22 01:43:19;;;;;;;2.67;2.17;;;24.90;51.70;;;-147.20;100.00;58430.41;5094592;28;20139;-53
2021/07/22 01:45:50;;;;;;;2.45;2.15;;;24.80;51.70;;;-147.20;100.00;58430.41;5114289;28;20048;-54
2021/07/22 01:48:17;;;;;;;2.80;2.38;;;24.90;51.70;;;-147.20;100.00;58430.41;5113312;28;20079;-52
2021/07/22 01:50:45;;;;;;;2.25;2.05;;;24.80;51.70;;;-147.20;100.00;58430.41;5114386;28;20055;-52
2021/07/22 01:53:11;;;;;;;2.35;2.03;;;24.80;51.80;;;-147.20;100.00;58430.41;5111426;28;20048;-54
2021/07/22 01:55:37;;;;;;;2.40;2.20;;;24.80;51.70;;;-147.20;100.00;58430.41;5112654;28;20052;-53
2021/07/22 01:58:04;;;;;;;2.97;2.50;;;24.80;51.80;;;-147.20;100.00;58430.41;5111906;28;20040;-46
2021/07/22 02:00:38;;;;;;;2.17;1.98;;;24.80;51.80;;;-147.20;100.00;58430.41;5113875;28;20083;-52
2021/07/22 02:03:05;;;;;;;2.80;2.22;;;24.80;51.80;;;-147.20;100.00;58430.41;5093105;28;20146;-48
2021/07/22 02:05:40;;;;;;;2.28;2.08;;;24.80;51.80;;;-147.20;100.00;58430.41;5113393;28;20044;-52
2021/07/22 02:08:06;;;;;;;2.20;2.00;;;24.80;51.80;;;-147.20;100.00;58430.41;5094462;28;20048;-54
2021/07/22 02:10:32;;;;;;;2.60;2.40;;;24.80;51.80;;;-147.20;100.00;58430.41;5112995;28;20096;-52
2021/07/22 02:12:58;;;;;;;2.30;2.10;;;24.80;51.90;;;-147.20;100.00;58430.41;5095245;28;20044;-50
2021/07/22 02:15:34;;;;;;;2.60;2.20;;;24.80;51.80;;;-147.20;100.00;58430.41;5096688;28;20051;-53
2021/07/22 02:18:00;;;;;;;2.30;2.00;;;24.80;51.80;;;-147.20;100.00;58430.41;5113617;28;20048;-49
2021/07/22 02:20:26;;;;;;;1.95;1.80;;;24.80;51.80;;;-147.20;100.00;58430.41;5114750;28;20063;-53
2021/07/22 02:22:53;;;;;;;2.92;2.35;;;24.80;51.90;;;-147.20;100.00;58430.41;5113062;28;20043;-53
2021/07/22 02:25:48;;;;;;;2.15;2.03;;;24.70;51.90;;;-147.20;100.00;58430.41;5113072;28;20079;-52
2021/07/22 02:28:14;;;;;;;2.30;2.10;;;24.80;51.90;;;-147.20;100.00;58430.41;5114017;28;20522;-53
2021/07/22 02:30:40;;;;;;;2.85;2.22;;;24.80;51.90;;;-147.20;100.00;58430.41;5110807;28;20065;-53
2021/07/22 02:33:07;;;;;;;2.30;2.10;;;24.70;51.90;;;-147.20;100.00;58430.41;5112811;28;20086;-53
2021/07/22 02:35:34;;;;;;;2.88;2.50;;;24.70;51.90;;;-147.20;100.00;58430.41;5114162;28;20044;-47
2021/07/22 02:38:19;;;;;;;2.47;2.28;;;24.70;51.90;;;-147.20;100.00;58430.41;5114386;28;20481;-48
2021/07/22 02:40:44;;;;;;;2.70;2.50;;;24.70;51.90;;;-147.20;100.00;58430.41;5113825;28;20426;-52
2021/07/22 02:43:11;;;;;;;2.67;2.20;;;24.70;51.90;;;-147.20;100.00;58430.41;5114330;28;20067;-49
2021/07/22 02:45:38;;;;;;;2.55;2.35;;;24.70;52.00;;;-147.20;100.00;58430.41;5113991;28;20406;-50
2021/07/22 02:48:08;;;;;;;3.53;2.20;;;24.70;52.00;;;-147.20;100.00;58430.41;5094144;28;20052;-49
2021/07/22 02:50:34;;;;;;;2.17;1.98;;;24.70;52.00;;;-147.20;100.00;58430.41;5095884;28;20039;-49
2021/07/22 02:53:04;;;;;;;2.25;1.85;;;24.70;52.00;;;-147.20;100.00;58430.41;5112480;28;20044;-49
2021/07/22 02:55:34;;;;;;;2.80;2.03;;;24.70;52.00;;;-147.20;100.00;58430.41;5113062;28;20049;-49
2021/07/22 02:58:06;;;;;;;2.47;2.10;;;24.70;52.00;;;-147.20;100.00;58430.41;5112381;28;20081;-54
2021/07/22 03:00:36;;;;;;;2.58;2.38;;;24.70;52.10;;;-147.20;100.00;58430.41;5091761;28;20411;-51
2021/07/22 03:03:02;;;;;;;2.35;2.15;;;24.70;52.10;;;-147.20;100.00;58430.41;5112384;28;20044;-53
2021/07/22 03:05:31;;;;;;;2.67;2.40;;;24.60;52.00;;;-147.20;100.00;58430.41;5112426;28;20491;-48
2021/07/22 03:07:59;;;;;;;2.40;2.20;;;24.60;52.10;;;-147.20;100.00;58430.41;5095619;28;20593;-52
2021/07/22 03:10:25;;;;;;;2.85;2.30;;;24.60;52.10;;;-147.20;100.00;58430.41;5112246;28;20047;-49
2021/07/22 03:12:55;;;;;;;2.20;2.00;;;24.70;52.10;;;-147.20;100.00;58430.41;5112664;28;20101;-50
2021/07/22 03:15:22;;;;;;;2.10;1.90;;;24.70;52.10;;;-147.20;100.00;58430.41;5112556;28;20093;-48
2021/07/22 03:17:48;;;;;;;2.30;2.10;;;24.60;52.10;;;-147.20;100.00;58430.41;5113571;28;20491;-47
2021/07/22 03:20:15;;;;;;;2.40;2.20;;;24.60;52.10;;;-147.20;100.00;58430.41;5095640;28;20043;-50
2021/07/22 03:22:54;;;;;;;2.10;1.90;;;24.60;52.10;;;-147.20;100.00;58430.41;5112214;28;20410;-49
2021/07/22 03:25:27;;;;;;;2.30;1.90;;;24.60;52.10;;;-147.20;100.00;58430.41;5077058;28;20052;-49
2021/07/22 03:28:04;;;;;;;2.00;1.80;;;24.60;52.10;;;-147.20;100.00;58430.41;5113314;28;20112;-51
2021/07/22 03:30:41;;;;;;;2.30;1.95;;;24.60;52.20;;;-147.20;100.00;58430.41;5095275;28;20138;-47
2021/07/22 03:33:34;;;;;;;2.00;1.85;;;24.60;52.20;;;-147.20;100.00;58430.41;5089187;28;20060;-50
2021/07/22 03:36:09;;;;;;;2.28;2.08;;;24.60;52.20;;;-147.20;100.00;58430.41;5112534;28;20043;-49
2021/07/22 03:38:40;;;;;;;2.45;2.10;;;24.60;52.20;;;-147.20;100.00;58430.41;5109692;28;20048;-50
2021/07/22 03:41:26;;;;;;;2.95;2.30;;;24.60;52.20;;;-147.20;100.00;58430.41;5113582;28;20057;-50
2021/07/22 03:43:57;;;;;;;2.47;2.28;;;24.60;52.20;;;-147.20;100.00;58430.41;5095310;28;20100;-49
2021/07/22 03:46:24;;;;;;;2.10;1.90;;;24.60;52.20;;;-147.20;100.00;58430.41;5111715;28;20556;-52
2021/07/22 03:48:50;;;;;;;2.58;2.13;;;24.60;52.30;;;-147.20;100.00;58430.41;5077150;28;20115;-53
2021/07/22 03:51:19;;;;;;;2.60;2.38;;;24.60;52.30;;;-147.20;100.00;58430.41;5111578;28;20052;-52
2021/07/22 03:53:45;;;;;;;2.15;1.92;;;24.50;52.20;;;-147.20;100.00;58430.41;5113055;28;20040;-50
2021/07/22 03:56:11;;;;;;;2.58;2.00;;;24.50;52.30;;;-147.20;100.00;58430.41;5095032;28;20047;-53
2021/07/22 03:58:46;;;;;;;2.25;2.05;;;24.50;52.30;;;-147.20;100.00;58430.41;5078785;28;20046;-49
2021/07/22 04:01:29;;;;;;;2.38;2.00;;;24.50;52.30;;;-147.20;100.00;58430.41;5111771;28;20051;-50
2021/07/22 04:03:57;;;;;;;2.67;2.40;;;24.50;52.30;;;-147.20;100.00;58430.41;5113317;28;20050;-50
2021/07/22 04:06:24;;;;;;;2.40;2.20;;;24.50;52.30;;;-147.20;100.00;58430.41;5098060;28;20044;-50
2021/07/22 04:08:50;;;;;;;2.15;1.95;;;24.50;52.30;;;-147.20;100.00;58430.41;5098162;28;20078;-51
2021/07/22 04:11:35;;;;;;;2.10;1.90;;;24.50;52.30;;;-147.20;100.00;58430.41;5114270;28;20105;-49
2021/07/22 04:14:23;;;;;;;2.50;2.30;;;24.50;52.30;;;-147.20;100.00;58430.41;5080791;28;20047;-50
2021/07/22 04:17:14;;;;;;;2.40;2.20;;;24.50;52.30;;;-147.20;100.00;58430.41;5077014;28;20072;-50
2021/07/22 04:20:00;;;;;;;2.33;2.00;;;24.50;52.30;;;-147.20;100.00;58430.41;5098413;28;20047;-51
2021/07/22 04:22:48;;;;;;;2.40;2.20;;;24.50;52.20;;;-147.20;100.00;58430.41;5098746;28;20038;-48
2021/07/22 04:25:33;;;;;;;2.60;2.28;;;24.50;52.30;;;-147.20;100.00;58430.41;5095334;28;20039;-49
2021/07/22 04:28:17;;;;;;;2.63;2.10;;;24.50;52.20;;;-147.20;100.00;58430.41;5116507;28;20058;-48
2021/07/22 04:30:44;;;;;;;3.38;2.30;;;24.60;52.30;;;-147.20;100.00;58430.41;5114433;28;20043;-51
2021/07/22 04:33:13;;;;;;;2.30;2.10;;;24.50;52.20;;;-147.20;100.00;58430.41;5114872;28;20178;-49
2021/07/22 04:35:56;;;;;;;2.70;2.30;;;24.50;52.20;;;-147.20;100.00;58430.41;5113911;28;20044;-51
2021/07/22 04:38:37;;;;;;;2.60;2.40;;;24.50;52.20;;;-147.20;100.00;58430.41;5097117;28;20067;-52
2021/07/22 04:41:25;;;;;;;2.40;2.20;;;24.50;52.20;;;-147.20;100.00;58430.41;5116017;28;20051;-54
2021/07/22 04:43:56;;;;;;;2.17;1.98;;;24.60;52.20;;;-147.20;100.00;58430.41;5114567;28;20052;-51
2021/07/22 04:46:41;;;;;;;2.28;2.08;;;24.60;52.20;;;-147.20;100.00;58430.41;5100845;28;20055;-55
2021/07/22 04:49:23;;;;;;;2.13;1.92;;;24.50;52.10;;;-147.20;100.00;58430.41;5096343;28;20044;-52
2021/07/22 04:52:06;;;;;;;2.30;2.10;;;24.60;52.10;;;-147.20;100.00;58430.41;5116121;28;20074;-48
2021/07/22 04:54:38;;;;;;;2.38;2.17;;;24.60;52.10;;;-147.20;100.00;58430.41;5116227;28;20049;-48
2021/07/22 04:57:06;;;;;;;2.55;2.35;;;24.60;52.10;;;-147.20;100.00;58430.41;5093597;28;20083;-47
2021/07/22 04:59:35;;;;;;;2.35;2.15;;;24.60;52.00;;;-147.20;100.00;58430.41;5097333;28;20475;-51
2021/07/22 05:02:01;;;;;;;2.50;2.10;;;24.60;52.00;;;-147.20;100.00;58430.41;5113568;28;20434;-49
2021/07/22 05:04:26;;;;;;;2.28;2.08;;;24.60;52.00;;;-147.20;100.00;58430.41;5113061;28;20055;-49
2021/07/22 05:06:58;;;;;;;2.53;2.33;;;24.60;52.00;;;-147.20;100.00;58430.41;5097476;28;20048;-51
2021/07/22 05:09:43;;;;;;;2.55;2.35;;;24.60;52.00;;;-147.20;100.00;58430.41;5115589;28;20058;-49
2021/07/22 05:12:29;;;;;;;2.08;1.88;;;24.60;52.00;;;-147.20;100.00;58430.41;5084050;28;20134;-52
2021/07/22 05:15:21;;;;;;;2.75;2.55;;;24.60;51.90;;;-147.20;100.00;58430.41;5113834;28;20044;-50
2021/07/22 05:18:04;;;;;;;2.60;2.40;;;24.70;51.90;;;-147.20;100.00;58430.41;5096151;28;20055;-52
2021/07/22 05:20:49;;;;;;;2.63;2.42;;;24.70;51.90;;;-147.20;100.00;58430.41;5115542;28;20070;-50
2021/07/22 05:23:21;;;;;;;2.45;2.25;;;24.70;51.90;;;-147.20;100.00;58430.41;5098207;28;20499;-52
2021/07/22 05:26:10;;;;;;;2.30;2.10;;;24.70;51.90;;;-147.20;100.00;58430.41;5115545;28;20058;-48
2021/07/22 05:29:02;;;;;;;2.63;2.30;;;24.70;51.90;;;-147.20;100.00;58430.41;5098573;28;20130;-54
2021/07/22 05:31:54;;;;;;;3.42;2.30;;;24.70;51.80;;;-147.20;100.00;58430.41;5111972;28;20047;-52
2021/07/22 05:34:38;;;;;;;2.40;2.20;;;24.70;51.70;;;-147.20;100.00;58430.41;5115441;28;20047;-48
2021/07/22 05:37:12;;;;;;;2.65;2.45;;;24.80;51.70;;;-147.20;100.00;58430.41;5111838;28;20396;-50
2021/07/22 05:39:42;;;;;;;2.30;2.10;;;24.80;51.60;;;-147.20;100.00;58430.41;5115167;28;20044;-52
2021/07/22 05:42:08;;;;;;;2.25;2.05;;;24.80;51.60;;;-147.20;100.00;58430.41;5113068;28;20388;-52
2021/07/22 05:44:34;;;;;;;2.20;2.00;;;24.80;51.50;;;-147.20;100.00;58430.41;5113643;28;20131;-49
2021/07/22 05:46:59;;;;;;;2.35;2.15;;;24.80;51.40;;;-147.20;100.00;58430.41;5114993;28;20073;-52
2021/07/22 05:49:25;;;;;;;2.67;2.38;;;24.90;51.40;;;-147.20;100.00;58430.41;5114915;28;20063;-52
2021/07/22 05:51:51;;;;;;;2.38;2.17;;;24.90;51.30;;;-147.20;100.00;58430.41;5114664;28;20047;-53
2021/07/22 05:54:16;;;;;;;1.90;1.80;;;25.00;51.30;;;-147.20;100.00;58430.41;5096512;28;20050;-51
2021/07/22 05:56:43;;;;;;;2.30;2.08;;;25.00;51.20;;;-147.20;100.00;58430.41;5113893;28;20040;-50
2021/07/22 05:59:09;;;;;;;3.03;2.38;;;25.00;51.10;;;-147.20;100.00;58430.41;5115063;28;20563;-53
2021/07/22 06:01:36;;;;;;;2.25;2.05;;;25.00;51.00;;;-147.20;100.00;58430.41;5114636;28;20051;-54
2021/07/22 06:04:02;;;;;;;2.25;2.05;;;25.00;51.00;;;-147.20;100.00;58430.41;5114677;28;20039;-49
2021/07/22 06:06:28;;;;;;;2.80;2.42;;;25.00;51.00;;;-147.20;100.00;58430.41;5114528;28;20055;-50
2021/07/22 06:08:54;;;;;;;2.45;2.25;;;25.10;51.00;;;-147.20;100.00;58430.41;5114510;28;20119;-52
2021/07/22 06:11:20;;;;;;;2.25;2.05;;;25.10;50.90;;;-147.20;100.00;58430.41;5095182;28;20078;-51
2021/07/22 06:13:46;;;;;;;2.30;2.10;;;25.10;50.90;;;-147.20;100.00;58430.41;5094151;28;20101;-52
2021/07/22 06:16:14;;;;;;;2.30;2.10;;;25.10;50.80;;;-147.20;100.00;58430.41;5114515;28;20070;-50
2021/07/22 06:18:41;;;;;;;2.47;2.28;;;25.10;50.80;;;-147.20;100.00;58430.41;5114485;28;20043;-52
2021/07/22 06:21:13;;;;;;;2.97;2.20;;;25.10;50.80;;;-147.20;100.00;58430.41;5079214;28;20085;-50
2021/07/22 06:23:39;;;;;;;2.80;2.50;;;25.10;50.80;;;-147.20;100.00;58430.41;5114432;28;20126;-52
2021/07/22 06:26:05;;;;;;;2.17;1.98;;;25.20;50.80;;;-147.20;100.00;58430.41;5113782;28;20051;-51
2021/07/22 06:28:31;;;;;;;2.55;2.13;;;25.20;50.70;;;-147.20;100.00;58430.41;5114510;28;20086;-57
2021/07/22 06:30:57;;;;;;;2.60;2.40;;;25.20;50.70;;;-147.20;100.00;58430.41;5113213;28;20048;-52
2021/07/22 06:33:23;;;;;;;3.30;2.28;;;25.30;50.70;;;-147.20;100.00;58430.41;5114006;28;20055;-54
2021/07/22 06:35:50;;;;;;;2.28;2.08;;;25.30;50.60;;;-147.20;100.00;58430.41;5114039;28;20052;-53
2021/07/22 06:38:16;;;;;;;2.30;2.10;;;25.40;50.50;;;-147.20;100.00;58430.41;5114009;28;20052;-50
2021/07/22 06:40:42;;;;;;;2.25;2.05;;;25.50;50.30;;;-147.20;100.00;58430.41;5114085;28;20085;-52
2021/07/22 06:43:09;;;;;;;2.28;2.08;;;25.50;50.10;;;-147.20;100.00;58430.41;5113930;28;20043;-48
2021/07/22 06:45:36;;;;;;;2.20;2.00;;;25.60;50.00;;;-147.20;100.00;58430.41;5113970;28;20130;-54
2021/07/22 06:48:03;;;;;;;2.38;2.10;;;25.70;49.80;;;-147.20;100.00;58430.41;5114343;28;20043;-53
2021/07/22 06:50:28;;;;;;;3.75;2.42;;;25.80;49.70;;;-147.20;100.00;58430.41;5114433;28;20112;-51
2021/07/22 06:52:54;;;;;;;2.63;2.42;;;25.80;49.60;;;-147.20;100.00;58430.41;5112495;28;20043;-52
2021/07/22 06:55:20;;;;;;;1.98;1.85;;;25.90;49.40;;;-147.20;100.00;58430.41;5113947;28;20066;-52
2021/07/22 06:57:48;;;;;;;2.70;2.20;;;26.00;49.30;;;-147.20;100.00;58430.41;5113760;28;20051;-54
2021/07/22 07:00:14;;;;;;;2.33;1.92;;;26.00;49.10;;;-147.20;100.00;58430.41;5113777;28;20048;-50
2021/07/22 07:02:40;;;;;;;2.50;2.00;;;26.00;49.10;;;-147.20;100.00;58430.41;5112371;28;20097;-50
2021/07/22 07:05:06;;;;;;;2.50;2.30;;;26.00;49.10;;;-147.20;100.00;58430.41;5113773;28;20052;-52
2021/07/22 07:07:32;;;;;;;2.45;2.20;;;26.00;49.10;;;-147.20;100.00;58430.41;5113678;28;20483;-51
2021/07/22 07:09:57;;;;;;;2.15;1.92;;;26.00;49.10;;;-147.20;100.00;58430.41;5114231;28;20092;-52
2021/07/22 07:12:23;;;;;;;2.42;2.22;;;26.00;49.20;;;-147.20;100.00;58430.41;5078733;28;20104;-50
2021/07/22 07:14:49;;;;;;;2.10;1.90;;;26.00;49.20;;;-147.20;100.00;58430.41;5113619;28;20079;-52
2021/07/22 07:17:15;;;;;;;3.78;2.10;;;26.00;49.20;;;-147.20;100.00;58430.41;5112500;28;20047;-49
2021/07/22 07:19:41;;;;;;;2.38;2.05;;;26.00;49.20;;;-147.20;100.00;58430.41;5113399;28;20051;-47
2021/07/22 07:22:07;;;;;;;2.67;2.42;;;26.00;49.10;;;-147.20;100.00;58430.41;5113457;28;20067;-50
2021/07/22 07:24:33;;;;;;;1.90;1.75;;;26.00;49.00;;;-147.20;100.00;58430.41;5113761;28;20101;-49
2021/07/22 07:26:58;;;;;;;3.00;2.25;;;26.00;49.00;;;-147.20;100.00;58430.41;5114074;28;20429;-47
2021/07/22 07:29:24;;;;;;;1.95;1.85;;;26.10;49.00;;;-147.20;100.00;58430.41;5094927;28;20039;-48
2021/07/22 07:31:50;;;;;;;2.47;2.20;;;26.10;48.80;;;-147.20;100.00;58430.41;5113199;28;20040;-49
2021/07/22 07:34:16;;;;;;;2.30;2.10;;;26.20;48.80;;;-147.20;100.00;58430.41;5113272;28;20048;-51
2021/07/22 07:36:44;;;;;;;2.15;1.95;;;26.20;48.80;;;-147.20;100.00;58430.41;5095011;28;20048;-51
2021/07/22 07:39:15;;;;;;;2.20;2.00;;;26.20;48.70;;;-147.20;100.00;58430.41;5113187;28;20112;-49
2021/07/22 07:41:43;;;;;;;2.33;2.10;;;26.30;48.70;;;-147.20;100.00;58430.41;5113270;28;20045;-47
2021/07/22 07:44:09;;;;;;;2.80;2.00;;;26.30;48.50;;;-147.20;100.00;58430.41;5113445;28;20061;-49
2021/07/22 07:46:35;;;;;;;1.85;1.75;;;26.30;48.40;;;-147.20;100.00;58430.41;5113100;28;20051;-52
2021/07/22 07:49:02;;;;;;;1.75;1.65;;;26.30;48.40;;;-147.20;100.00;58430.41;5078035;28;20142;-51
2021/07/22 07:51:28;;;;;;;2.45;2.05;;;26.30;48.40;;;-147.20;100.00;58430.41;5094498;28;20075;-51
2021/07/22 07:53:53;;;;;;;2.42;2.22;;;26.30;48.40;;;-147.20;100.00;58430.41;5113015;28;20059;-52
2021/07/22 07:56:19;;;;;;;2.20;1.95;;;26.30;48.50;;;-147.20;100.00;58430.41;5112971;28;20093;-53
2021/07/22 07:58:45;;;;;;;1.90;1.80;;;26.30;48.50;;;-147.20;100.00;58430.41;5112904;28;20047;-51
2021/07/22 08:01:11;;;;;;;2.20;2.00;;;26.30;48.50;;;-147.20;100.00;58430.41;5111553;28;20043;-50
2021/07/22 08:03:38;;;;;;;2.20;2.00;;;26.30;48.50;;;-147.20;100.00;58430.41;5113420;28;20055;-51
2021/07/22 08:06:05;;;;;;;2.17;1.98;;;26.30;48.50;;;-147.20;100.00;58430.41;5112913;28;20047;-52
2021/07/22 08:08:34;;;;;;;3.40;2.00;;;26.30;48.50;;;-147.20;100.00;58430.41;5112778;28;20114;-48
2021/07/22 08:11:00;;;;;;;2.33;2.10;;;26.30;48.50;;;-147.20;100.00;58430.41;5112629;28;20184;-50
2021/07/22 08:13:27;;;;;;;3.80;2.35;;;26.30;48.40;;;-147.20;100.00;58430.41;5112550;28;20509;-49
2021/07/22 08:15:53;;;;;;;2.05;1.85;;;26.30;48.40;;;-147.20;100.00;58430.41;5112735;28;20467;-49
2021/07/22 08:18:19;;;;;;;3.10;2.00;;;26.30;48.30;;;-147.20;100.00;58430.41;5094122;28;20079;-49
2021/07/22 08:20:45;;;;;;;2.15;1.98;;;26.30;48.30;;;-147.20;100.00;58430.41;5112546;28;20060;-48
2021/07/22 08:23:11;;;;;;;1.92;1.83;;;26.40;48.30;;;-147.20;100.00;58430.41;5110040;28;20471;-49
2021/07/22 08:25:37;;;;;;;2.28;2.08;;;26.40;48.30;;;-147.20;100.00;58430.41;5094307;28;20483;-49
2021/07/22 08:28:04;;;;;;;2.10;1.80;;;26.40;48.20;;;-147.20;100.00;58430.41;5094178;28;20335;-52
2021/07/22 08:30:31;;;;;;;2.45;2.25;;;26.40;48.20;;;-147.20;100.00;58430.41;5094750;28;20044;-50
2021/07/22 08:32:56;;;;;;;3.80;2.15;;;26.40;48.20;;;-147.20;100.00;58430.41;5111517;28;20435;-48
2021/07/22 08:35:23;;;;;;;2.67;2.10;;;26.40;48.10;;;-147.20;100.00;58430.41;5112978;28;20085;-51
2021/07/22 08:37:49;;;;;;;1.98;1.70;;;26.50;48.10;;;-147.20;100.00;58430.41;5112336;28;20051;-46
2021/07/22 08:40:15;;;;;;;2.33;2.10;;;26.50;48.10;;;-147.20;100.00;58430.41;5112456;28;20135;-49
2021/07/22 08:42:44;;;;;;;2.35;2.00;;;26.50;48.00;;;-147.20;100.00;58430.41;5112339;28;20047;-52
2021/07/22 08:45:12;;;;;;;2.15;1.95;;;26.50;47.90;;;-147.20;100.00;58430.41;5112528;28;20043;-51
2021/07/22 08:47:38;;;;;;;2.55;2.35;;;26.50;47.90;;;-147.20;100.00;58430.41;5110574;28;20056;-47
2021/07/22 08:50:09;;;;;;;2.20;2.00;;;26.60;47.80;;;-147.20;100.00;58430.41;5096201;28;20052;-51
2021/07/22 08:52:35;;;;;;;2.53;2.10;;;26.60;47.80;;;-147.20;100.00;58430.41;5116237;28;20047;-54
2021/07/22 08:55:01;;;;;;;2.17;1.90;;;26.60;47.70;;;-147.20;100.00;58430.41;5115841;28;20077;-54
2021/07/22 08:57:32;;;;;;;1.98;1.88;;;26.60;47.70;;;-147.20;100.00;58430.41;5115598;28;20074;-50
2021/07/22 08:59:59;;;;;;;2.15;1.95;;;26.60;47.60;;;-147.20;100.00;58430.41;5098330;28;20046;-49
2021/07/22 09:02:30;;;;;;;2.05;1.80;;;26.70;47.70;;;-147.20;100.00;58430.41;5115578;28;20075;-49
2021/07/22 09:04:58;;;;;;;2.05;1.85;;;26.70;47.70;;;-147.20;100.00;58430.41;5116218;28;20086;-48
2021/07/22 09:07:24;;;;;;;2.22;2.03;;;26.70;47.60;;;-147.20;100.00;58430.41;5115547;28;20043;-51
2021/07/22 09:10:11;;;;;;;2.10;1.90;;;26.70;47.60;;;-147.20;100.00;58430.41;5115347;28;20479;-50
2021/07/22 09:12:39;;;;;;;2.55;2.10;;;26.70;47.60;;;-147.20;100.00;58430.41;5115354;28;20051;-46
2021/07/22 09:15:07;;;;;;;2.38;2.17;;;26.70;47.50;;;-147.20;100.00;58430.41;5115371;28;20441;-47
2021/07/22 09:17:33;;;;;;;5.75;2.50;;;26.70;47.50;;;-147.20;100.00;58430.41;5115467;28;20479;-48
2021/07/22 09:19:59;;;;;;;2.30;2.10;;;26.70;47.50;;;-147.20;100.00;58430.41;5115442;28;20130;-47
2021/07/22 09:22:37;;;;;;;2.10;1.90;;;26.70;47.50;;;-147.20;100.00;58430.41;5115359;28;20048;-49
2021/07/22 09:25:04;;;;;;;1.90;1.80;;;26.70;47.40;;;-147.20;100.00;58430.41;5115563;28;20392;-49
2021/07/22 09:27:44;;;;;;;2.38;2.03;;;26.70;47.30;;;-147.20;100.00;58430.41;5115187;28;20055;-52
2021/07/22 09:30:19;;;;;;;1.92;1.83;;;26.80;47.40;;;-147.20;100.00;58430.41;5097567;28;20143;-47
2021/07/22 09:32:50;;;;;;;2.40;2.20;;;26.80;47.40;;;-147.20;100.00;58430.41;5115326;28;20043;-49
2021/07/22 09:35:17;;;;;;;2.42;2.03;;;26.80;47.30;;;-147.20;100.00;58430.41;5115660;28;20036;-52
2021/07/22 09:37:50;;;;;;;2.47;2.00;;;26.80;47.30;;;-147.20;100.00;58430.41;5114907;28;20047;-50
2021/07/22 09:40:26;;;;;;;2.55;2.00;;;26.80;47.20;;;-147.20;100.00;58430.41;5115413;28;20180;-51
2021/07/22 09:42:54;;;;;;;2.13;1.92;;;26.80;47.20;;;-147.20;100.00;58430.41;5115616;28;20174;-49
2021/07/22 09:45:23;;;;;;;2.40;1.90;;;26.80;47.10;;;-147.20;100.00;58430.41;5115260;28;20047;-53
2021/07/22 09:47:51;;;;;;;3.42;2.20;;;26.90;47.20;;;-147.20;100.00;58430.41;5096615;28;20207;-49
2021/07/22 09:50:19;;;;;;;3.30;2.20;;;26.80;47.00;;;-147.20;100.00;58430.41;5113376;28;20048;-49
2021/07/22 09:53:06;;;;;;;3.47;2.10;;;26.90;47.00;;;-147.20;100.00;58430.41;5115249;28;20044;-47
2021/07/22 09:55:33;;;;;;;2.53;2.00;;;26.90;47.00;;;-147.20;100.00;58430.41;5114801;28;20437;-48
2021/07/22 09:58:02;;;;;;;2.00;1.80;;;26.90;47.00;;;-147.20;100.00;58430.41;5114872;28;20050;-49
2021/07/22 10:00:30;;;;;;;3.00;2.13;;;26.90;47.00;;;-147.20;100.00;58430.41;5113834;28;20044;-45
2021/07/22 10:03:01;;;;;;;2.42;2.00;;;26.90;47.00;;;-147.20;100.00;58430.41;5114304;28;20165;-46
2021/07/22 10:05:39;;;;;;;2.35;1.98;;;26.90;46.90;;;-147.20;100.00;58430.41;5114721;28;20085;-47
2021/07/22 10:08:06;;;;;;;2.38;2.05;;;26.90;46.90;;;-147.20;100.00;58430.41;5114592;28;20051;-50
2021/07/22 10:10:34;;;;;;;3.30;1.95;;;26.90;46.80;;;-147.20;100.00;58430.41;5114486;28;20096;-50
2021/07/22 10:13:02;;;;;;;2.50;2.10;;;26.90;46.80;;;-147.20;100.00;58430.41;5096562;28;20457;-47